Voe, United Kingdom
Current Conditions -  °F | °C
As of 9:50 AM on Sunday 21 Dec 2014 (Local Time) from EGPM Reporting Station
Drizzle Drizzle  
Wind Chill: 40°   Ceiling: 1200
Heat Index: 48°   Visibility: 5mi
Dew Point: 48°   Wind: 29mph
Humidity: 100%   Direction: 240°WSW
Pressure: 29.38"   Gusts: 41mph
Location:  60.35°N, 1.27°W
Report Text: EGPM 210950Z 24025G36KT 8000 -DZ FEW003 SCT007 BKN012 09/09 Q0995
Loading
Personal Weather Stations






























Interactive Weather Map New forecast layout! Learn more

10-Day Weather Forecast

Advertisements
Track Severe Weather on mobile